sensor_id;sensor_type;location;lat;lon;timestamp;pressure;altitude;pressure_sealevel;temperature;humidity
62978;BME280;49073;42.352;23.808;2024-01-07T00:01:54;93293.44;;;4.96;100.00
62978;BME280;49073;42.352;23.808;2024-01-07T00:04:55;93287.63;;;5.10;100.00
62978;BME280;49073;42.352;23.808;2024-01-07T00:07:55;93296.56;;;5.02;100.00
62978;BME280;49073;42.352;23.808;2024-01-07T00:10:56;93295.91;;;5.08;100.00
62978;BME280;49073;42.352;23.808;2024-01-07T00:13:56;93297.84;;;5.12;100.00
62978;BME280;49073;42.352;23.808;2024-01-07T00:16:57;93289.44;;;5.29;100.00
62978;BME280;49073;42.352;23.808;2024-01-07T00:19:58;93265.50;;;5.42;100.00
62978;BME280;49073;42.352;23.808;2024-01-07T00:22:58;93272.22;;;5.39;100.00
62978;BME280;49073;42.352;23.808;2024-01-07T00:25:59;93278.00;;;5.45;100.00
62978;BME280;49073;42.352;23.808;2024-01-07T00:28:59;93275.84;;;5.54;100.00
62978;BME280;49073;42.352;23.808;2024-01-07T00:32:00;93235.03;;;5.51;100.00
62978;BME280;49073;42.352;23.808;2024-01-07T00:35:00;93254.31;;;5.52;100.00
62978;BME280;49073;42.352;23.808;2024-01-07T00:38:01;93244.91;;;5.54;100.00
62978;BME280;49073;42.352;23.808;2024-01-07T00:41:02;93242.72;;;5.60;100.00
62978;BME280;49073;42.352;23.808;2024-01-07T00:44:02;93225.66;;;5.54;100.00
62978;BME280;49073;42.352;23.808;2024-01-07T00:47:03;93214.78;;;5.59;100.00
62978;BME280;49073;42.352;23.808;2024-01-07T00:50:04;93211.88;;;5.68;100.00
62978;BME280;49073;42.352;23.808;2024-01-07T00:53:05;93193.81;;;5.74;100.00
62978;BME280;49073;42.352;23.808;2024-01-07T00:56:06;93193.91;;;5.81;100.00
62978;BME280;49073;42.352;23.808;2024-01-07T00:59:07;93143.59;;;5.74;100.00
62978;BME280;49073;42.352;23.808;2024-01-07T01:02:08;93139.91;;;5.82;100.00
62978;BME280;49073;42.352;23.808;2024-01-07T01:05:08;93155.81;;;5.86;100.00
62978;BME280;49073;42.352;23.808;2024-01-07T01:08:09;93167.91;;;5.87;100.00
62978;BME280;49073;42.352;23.808;2024-01-07T01:11:10;93140.69;;;5.82;100.00
62978;BME280;49073;42.352;23.808;2024-01-07T01:14:11;93145.50;;;5.77;100.00
62978;BME280;49073;42.352;23.808;2024-01-07T01:17:12;93131.25;;;5.85;100.00
62978;BME280;49073;42.352;23.808;2024-01-07T01:20:13;93125.97;;;5.85;100.00
62978;BME280;49073;42.352;23.808;2024-01-07T01:23:14;93126.66;;;5.78;100.00
62978;BME280;49073;42.352;23.808;2024-01-07T01:26:15;93114.25;;;5.82;100.00
62978;BME280;49073;42.352;23.808;2024-01-07T01:29:15;93101.56;;;5.95;100.00
62978;BME280;49073;42.352;23.808;2024-01-07T01:32:16;93089.47;;;5.94;100.00
62978;BME280;49073;42.352;23.808;2024-01-07T01:35:17;93077.47;;;6.01;100.00
62978;BME280;49073;42.352;23.808;2024-01-07T01:38:17;93085.69;;;5.95;100.00
62978;BME280;49073;42.352;23.808;2024-01-07T01:41:18;93093.31;;;6.01;100.00
62978;BME280;49073;42.352;23.808;2024-01-07T01:44:18;93078.22;;;6.01;100.00
62978;BME280;49073;42.352;23.808;2024-01-07T01:47:19;93090.34;;;6.06;100.00
62978;BME280;49073;42.352;23.808;2024-01-07T01:50:20;93074.50;;;6.09;100.00
62978;BME280;49073;42.352;23.808;2024-01-07T01:53:20;93078.66;;;6.10;100.00
62978;BME280;49073;42.352;23.808;2024-01-07T01:56:22;93065.84;;;6.13;100.00
62978;BME280;49073;42.352;23.808;2024-01-07T01:59:23;93068.09;;;6.10;100.00
62978;BME280;49073;42.352;23.808;2024-01-07T02:02:26;93051.03;;;6.04;100.00
62978;BME280;49073;42.352;23.808;2024-01-07T02:05:27;93045.41;;;6.09;100.00
62978;BME280;49073;42.352;23.808;2024-01-07T02:08:28;93036.34;;;6.10;100.00
62978;BME280;49073;42.352;23.808;2024-01-07T02:11:30;93038.59;;;6.05;100.00
62978;BME280;49073;42.352;23.808;2024-01-07T02:14:30;93023.84;;;6.07;100.00
62978;BME280;49073;42.352;23.808;2024-01-07T02:17:31;93017.81;;;6.07;100.00
62978;BME280;49073;42.352;23.808;2024-01-07T02:20:32;93017.91;;;6.18;100.00
62978;BME280;49073;42.352;23.808;2024-01-07T02:23:32;93012.16;;;6.05;100.00
62978;BME280;49073;42.352;23.808;2024-01-07T02:26:33;93009.16;;;6.10;100.00
62978;BME280;49073;42.352;23.808;2024-01-07T02:29:36;93006.56;;;6.17;100.00
62978;BME280;49073;42.352;23.808;2024-01-07T02:32:37;92993.47;;;6.35;100.00
62978;BME280;49073;42.352;23.808;2024-01-07T02:35:38;93003.22;;;6.24;100.00
62978;BME280;49073;42.352;23.808;2024-01-07T02:38:38;92987.72;;;6.19;100.00
62978;BME280;49073;42.352;23.808;2024-01-07T02:41:39;92983.22;;;6.26;100.00
62978;BME280;49073;42.352;23.808;2024-01-07T02:44:40;92967.72;;;6.29;100.00
62978;BME280;49073;42.352;23.808;2024-01-07T02:47:40;92958.31;;;6.35;100.00
62978;BME280;49073;42.352;23.808;2024-01-07T02:50:41;92957.06;;;6.18;100.00
62978;BME280;49073;42.352;23.808;2024-01-07T02:53:41;92953.97;;;6.05;100.00
62978;BME280;49073;42.352;23.808;2024-01-07T02:56:42;92959.75;;;6.21;100.00
62978;BME280;49073;42.352;23.808;2024-01-07T02:59:43;92968.91;;;6.31;100.00
62978;BME280;49073;42.352;23.808;2024-01-07T03:02:43;92974.19;;;6.35;100.00
62978;BME280;49073;42.352;23.808;2024-01-07T03:05:44;92974.19;;;6.31;100.00
62978;BME280;49073;42.352;23.808;2024-01-07T03:08:45;92965.53;;;6.38;100.00
62978;BME280;49073;42.352;23.808;2024-01-07T03:11:45;92974.19;;;6.31;100.00
62978;BME280;49073;42.352;23.808;2024-01-07T03:14:46;92967.41;;;6.37;100.00
62978;BME280;49073;42.352;23.808;2024-01-07T03:17:46;92967.47;;;6.45;100.00
62978;BME280;49073;42.352;23.808;2024-01-07T03:20:47;92964.44;;;6.46;100.00
62978;BME280;49073;42.352;23.808;2024-01-07T03:23:48;92945.59;;;6.55;100.00
62978;BME280;49073;42.352;23.808;2024-01-07T03:26:49;92950.19;;;6.62;100.00
62978;BME280;49073;42.352;23.808;2024-01-07T03:29:50;92947.88;;;6.57;100.00
62978;BME280;49073;42.352;23.808;2024-01-07T03:32:51;92936.13;;;6.54;100.00
62978;BME280;49073;42.352;23.808;2024-01-07T03:35:52;92921.38;;;6.53;100.00
62978;BME280;49073;42.352;23.808;2024-01-07T03:38:53;92913.47;;;6.57;100.00
62978;BME280;49073;42.352;23.808;2024-01-07T03:41:55;92909.22;;;6.41;100.00
62978;BME280;49073;42.352;23.808;2024-01-07T03:44:56;92896.38;;;6.43;100.00
62978;BME280;49073;42.352;23.808;2024-01-07T03:47:57;92903.53;;;6.35;100.00
62978;BME280;49073;42.352;23.808;2024-01-07T03:50:57;92906.50;;;6.23;100.00
62978;BME280;49073;42.352;23.808;2024-01-07T03:53:58;92892.59;;;6.40;100.00
62978;BME280;49073;42.352;23.808;2024-01-07T03:56:58;92894.47;;;6.36;100.00
62978;BME280;49073;42.352;23.808;2024-01-07T03:59:59;92892.97;;;6.39;100.00
62978;BME280;49073;42.352;23.808;2024-01-07T04:03:00;92881.97;;;6.30;100.00
62978;BME280;49073;42.352;23.808;2024-01-07T04:06:00;92865.00;;;6.38;100.00
62978;BME280;49073;42.352;23.808;2024-01-07T04:09:01;92852.16;;;6.40;100.00
62978;BME280;49073;42.352;23.808;2024-01-07T04:12:04;92843.81;;;6.38;100.00
62978;BME280;49073;42.352;23.808;2024-01-07T04:15:05;92844.63;;;6.46;100.00
62978;BME280;49073;42.352;23.808;2024-01-07T04:18:05;92834.44;;;6.48;100.00
62978;BME280;49073;42.352;23.808;2024-01-07T04:21:09;92826.84;;;6.43;100.00
62978;BME280;49073;42.352;23.808;2024-01-07T04:24:10;92836.66;;;6.42;100.00
62978;BME280;49073;42.352;23.808;2024-01-07T04:27:10;92854.03;;;6.32;100.00
62978;BME280;49073;42.352;23.808;2024-01-07T04:30:11;92860.06;;;6.33;100.00
62978;BME280;49073;42.352;23.808;2024-01-07T04:33:12;92882.66;;;6.19;100.00
62978;BME280;49073;42.352;23.808;2024-01-07T04:36:13;92892.53;;;6.30;100.00
62978;BME280;49073;42.352;23.808;2024-01-07T04:39:13;92875.19;;;6.36;100.00
62978;BME280;49073;42.352;23.808;2024-01-07T04:42:14;92897.84;;;6.33;100.00
62978;BME280;49073;42.352;23.808;2024-01-07T04:45:14;92889.56;;;6.42;100.00
62978;BME280;49073;42.352;23.808;2024-01-07T04:48:15;92908.09;;;6.38;100.00
62978;BME280;49073;42.352;23.808;2024-01-07T04:51:15;92894.88;;;6.42;100.00
62978;BME280;49073;42.352;23.808;2024-01-07T04:54:16;92891.16;;;6.50;100.00
62978;BME280;49073;42.352;23.808;2024-01-07T04:57:16;92877.50;;;6.45;100.00
62978;BME280;49073;42.352;23.808;2024-01-07T05:00:17;92870.31;;;6.45;100.00
62978;BME280;49073;42.352;23.808;2024-01-07T05:03:17;92868.06;;;6.47;100.00
62978;BME280;49073;42.352;23.808;2024-01-07T05:06:18;92869.13;;;6.28;100.00
62978;BME280;49073;42.352;23.808;2024-01-07T05:09:18;92887.66;;;6.39;100.00
62978;BME280;49073;42.352;23.808;2024-01-07T05:12:19;92903.19;;;6.44;100.00
62978;BME280;49073;42.352;23.808;2024-01-07T05:15:19;92906.28;;;6.53;100.00
62978;BME280;49073;42.352;23.808;2024-01-07T05:18:23;92906.22;;;6.46;100.00
62978;BME280;49073;42.352;23.808;2024-01-07T05:21:24;92917.88;;;6.31;100.00
62978;BME280;49073;42.352;23.808;2024-01-07T05:24:25;92906.97;;;6.39;100.00
62978;BME280;49073;42.352;23.808;2024-01-07T05:27:25;92898.56;;;6.23;100.00
62978;BME280;49073;42.352;23.808;2024-01-07T05:30:26;92895.22;;;6.37;100.00
62978;BME280;49073;42.352;23.808;2024-01-07T05:33:27;92889.50;;;6.28;100.00
62978;BME280;49073;42.352;23.808;2024-01-07T05:36:27;92884.28;;;6.38;100.00
62978;BME280;49073;42.352;23.808;2024-01-07T05:39:28;92882.75;;;6.41;100.00
62978;BME280;49073;42.352;23.808;2024-01-07T05:42:28;92871.38;;;6.30;100.00
62978;BME280;49073;42.352;23.808;2024-01-07T05:45:29;92880.81;;;6.27;100.00
62978;BME280;49073;42.352;23.808;2024-01-07T05:48:49;92891.31;;;6.13;100.00
62978;BME280;49073;42.352;23.808;2024-01-07T05:51:49;92895.50;;;6.17;100.00
62978;BME280;49073;42.352;23.808;2024-01-07T05:54:50;92885.25;;;6.12;100.00
62978;BME280;49073;42.352;23.808;2024-01-07T05:57:51;92882.97;;;6.07;100.00
62978;BME280;49073;42.352;23.808;2024-01-07T06:00:51;92879.59;;;6.14;100.00
62978;BME280;49073;42.352;23.808;2024-01-07T06:03:52;92872.09;;;6.19;100.00
62978;BME280;49073;42.352;23.808;2024-01-07T06:06:52;92875.13;;;6.21;100.00
62978;BME280;49073;42.352;23.808;2024-01-07T06:09:53;92874.34;;;6.17;100.00
62978;BME280;49073;42.352;23.808;2024-01-07T06:12:53;92857.34;;;6.18;100.00
62978;BME280;49073;42.352;23.808;2024-01-07T06:15:54;92850.91;;;6.19;100.00
62978;BME280;49073;42.352;23.808;2024-01-07T06:18:54;92877.25;;;6.01;100.00
62978;BME280;49073;42.352;23.808;2024-01-07T06:21:55;92885.56;;;6.03;100.00
62978;BME280;49073;42.352;23.808;2024-01-07T06:24:56;92881.66;;;5.86;100.00
62978;BME280;49073;42.352;23.808;2024-01-07T06:27:56;92877.50;;;5.85;100.00
62978;BME280;49073;42.352;23.808;2024-01-07T06:30:57;92878.56;;;5.77;100.00
62978;BME280;49073;42.352;23.808;2024-01-07T06:33:58;92895.25;;;5.85;100.00
62978;BME280;49073;42.352;23.808;2024-01-07T06:36:59;92908.09;;;5.86;100.00
62978;BME280;49073;42.352;23.808;2024-01-07T06:39:59;92911.84;;;5.85;100.00
62978;BME280;49073;42.352;23.808;2024-01-07T06:43:00;92919.47;;;5.90;100.00
62978;BME280;49073;42.352;23.808;2024-01-07T06:46:01;92919.59;;;6.08;100.00
62978;BME280;49073;42.352;23.808;2024-01-07T06:49:01;92916.31;;;6.22;100.00
62978;BME280;49073;42.352;23.808;2024-01-07T06:52:02;92926.53;;;6.24;100.00
62978;BME280;49073;42.352;23.808;2024-01-07T06:55:05;92934.81;;;6.19;100.00
62978;BME280;49073;42.352;23.808;2024-01-07T06:58:06;92924.97;;;6.19;100.00
62978;BME280;49073;42.352;23.808;2024-01-07T07:01:07;92927.69;;;6.34;100.00
62978;BME280;49073;42.352;23.808;2024-01-07T07:04:07;92928.13;;;6.39;100.00
62978;BME280;49073;42.352;23.808;2024-01-07T07:07:15;92933.72;;;6.31;100.00
62978;BME280;49073;42.352;23.808;2024-01-07T07:10:15;92935.53;;;6.16;100.00
62978;BME280;49073;42.352;23.808;2024-01-07T07:13:16;92935.56;;;6.19;100.00
62978;BME280;49073;42.352;23.808;2024-01-07T07:16:17;92931.75;;;6.17;100.00
62978;BME280;49073;42.352;23.808;2024-01-07T07:19:17;92930.34;;;6.30;100.00
62978;BME280;49073;42.352;23.808;2024-01-07T07:22:18;92916.00;;;6.35;100.00
62978;BME280;49073;42.352;23.808;2024-01-07T07:25:32;92914.88;;;6.36;100.00
62978;BME280;49073;42.352;23.808;2024-01-07T07:28:32;92904.38;;;6.50;100.00
62978;BME280;49073;42.352;23.808;2024-01-07T07:31:33;92907.09;;;6.65;100.00
62978;BME280;49073;42.352;23.808;2024-01-07T07:34:34;92909.28;;;6.52;100.00
62978;BME280;49073;42.352;23.808;2024-01-07T07:37:34;92905.84;;;6.44;100.00
62978;BME280;49073;42.352;23.808;2024-01-07T07:40:35;92903.69;;;6.68;100.00
62978;BME280;49073;42.352;23.808;2024-01-07T07:43:36;92902.59;;;6.76;100.00
62978;BME280;49073;42.352;23.808;2024-01-07T07:46:36;92903.34;;;6.77;100.00
62978;BME280;49073;42.352;23.808;2024-01-07T07:49:37;92898.84;;;6.81;100.00
62978;BME280;49073;42.352;23.808;2024-01-07T07:52:43;92898.81;;;6.77;100.00
62978;BME280;49073;42.352;23.808;2024-01-07T07:55:46;92900.00;;;6.91;100.00
62978;BME280;49073;42.352;23.808;2024-01-07T07:58:47;92894.31;;;6.89;100.00
62978;BME280;49073;42.352;23.808;2024-01-07T08:01:48;92898.13;;;6.91;100.00
62978;BME280;49073;42.352;23.808;2024-01-07T08:04:50;92903.78;;;6.93;100.00
62978;BME280;49073;42.352;23.808;2024-01-07T08:07:51;92901.53;;;6.99;100.00
62978;BME280;49073;42.352;23.808;2024-01-07T08:10:52;92904.53;;;6.94;100.00
62978;BME280;49073;42.352;23.808;2024-01-07T08:13:52;92903.41;;;6.95;100.00
62978;BME280;49073;42.352;23.808;2024-01-07T08:16:53;92877.69;;;6.95;100.00
62978;BME280;49073;42.352;23.808;2024-01-07T08:19:54;92868.25;;;7.05;100.00
62978;BME280;49073;42.352;23.808;2024-01-07T08:22:55;92870.94;;;7.12;100.00
62978;BME280;49073;42.352;23.808;2024-01-07T08:25:56;92859.59;;;7.26;100.00
62978;BME280;49073;42.352;23.808;2024-01-07T08:28:57;92869.81;;;7.28;100.00
62978;BME280;49073;42.352;23.808;2024-01-07T08:31:58;92885.31;;;7.30;100.00
62978;BME280;49073;42.352;23.808;2024-01-07T08:35:02;92884.19;;;7.27;100.00
62978;BME280;49073;42.352;23.808;2024-01-07T08:38:03;92896.69;;;7.26;100.00
62978;BME280;49073;42.352;23.808;2024-01-07T08:41:03;92895.94;;;7.33;100.00
62978;BME280;49073;42.352;23.808;2024-01-07T08:44:04;92900.47;;;7.29;100.00
62978;BME280;49073;42.352;23.808;2024-01-07T08:47:08;92892.53;;;7.33;100.00
62978;BME280;49073;42.352;23.808;2024-01-07T08:50:09;92895.56;;;7.38;100.00
62978;BME280;49073;42.352;23.808;2024-01-07T08:53:09;92880.81;;;7.41;100.00
62978;BME280;49073;42.352;23.808;2024-01-07T08:56:10;92871.34;;;7.43;100.00
62978;BME280;49073;42.352;23.808;2024-01-07T08:59:12;92865.66;;;7.41;100.00
62978;BME280;49073;42.352;23.808;2024-01-07T09:02:13;92874.03;;;7.54;100.00
62978;BME280;49073;42.352;23.808;2024-01-07T09:05:14;92877.06;;;7.67;100.00
62978;BME280;49073;42.352;23.808;2024-01-07T09:08:15;92876.28;;;7.74;100.00
62978;BME280;49073;42.352;23.808;2024-01-07T09:11:19;92866.81;;;7.77;100.00
62978;BME280;49073;42.352;23.808;2024-01-07T09:14:20;92858.50;;;7.82;100.00
62978;BME280;49073;42.352;23.808;2024-01-07T09:17:20;92868.34;;;7.70;100.00
62978;BME280;49073;42.352;23.808;2024-01-07T09:20:21;92864.53;;;7.64;100.00
62978;BME280;49073;42.352;23.808;2024-01-07T09:23:22;92863.41;;;7.65;100.00
62978;BME280;49073;42.352;23.808;2024-01-07T09:26:23;92861.16;;;7.75;100.00
62978;BME280;49073;42.352;23.808;2024-01-07T09:29:23;92859.22;;;7.90;100.00
62978;BME280;49073;42.352;23.808;2024-01-07T09:32:24;92856.16;;;8.20;100.00
62978;BME280;49073;42.352;23.808;2024-01-07T09:35:24;92858.38;;;8.47;100.00
62978;BME280;49073;42.352;23.808;2024-01-07T09:38:26;92848.88;;;8.57;100.00
62978;BME280;49073;42.352;23.808;2024-01-07T09:41:26;92853.63;;;8.98;100.00
62978;BME280;49073;42.352;23.808;2024-01-07T09:44:27;92858.22;;;8.91;100.00
62978;BME280;49073;42.352;23.808;2024-01-07T09:47:27;92849.81;;;8.99;100.00
62978;BME280;49073;42.352;23.808;2024-01-07T09:50:28;92849.75;;;9.14;100.00
62978;BME280;49073;42.352;23.808;2024-01-07T09:53:31;92837.94;;;9.19;100.00
62978;BME280;49073;42.352;23.808;2024-01-07T09:56:38;92837.22;;;9.18;100.00
62978;BME280;49073;42.352;23.808;2024-01-07T09:59:42;92828.06;;;9.23;100.00
62978;BME280;49073;42.352;23.808;2024-01-07T10:02:44;92836.84;;;9.16;100.00
62978;BME280;49073;42.352;23.808;2024-01-07T10:05:46;92824.31;;;9.66;100.00
62978;BME280;49073;42.352;23.808;2024-01-07T10:08:47;92818.25;;;10.07;100.00
62978;BME280;49073;42.352;23.808;2024-01-07T10:11:49;92822.50;;;10.01;100.00
62978;BME280;49073;42.352;23.808;2024-01-07T10:14:50;92821.13;;;10.24;100.00
62978;BME280;49073;42.352;23.808;2024-01-07T10:17:55;92816.16;;;10.26;97.71
62978;BME280;49073;42.352;23.808;2024-01-07T10:21:02;92820.56;;;10.05;96.54
62978;BME280;49073;42.352;23.808;2024-01-07T10:24:07;92818.47;;;9.85;96.23
62978;BME280;49073;42.352;23.808;2024-01-07T10:27:09;92818.22;;;9.69;96.78
62978;BME280;49073;42.352;23.808;2024-01-07T10:30:11;92816.41;;;9.58;97.56
62978;BME280;49073;42.352;23.808;2024-01-07T10:33:12;92811.09;;;9.58;97.60
62978;BME280;49073;42.352;23.808;2024-01-07T10:36:13;92805.75;;;9.62;97.89
62978;BME280;49073;42.352;23.808;2024-01-07T10:39:14;92798.94;;;9.57;99.39
62978;BME280;49073;42.352;23.808;2024-01-07T10:42:18;92799.38;;;9.94;94.94
62978;BME280;49073;42.352;23.808;2024-01-07T10:45:18;92783.16;;;10.19;95.50
62978;BME280;49073;42.352;23.808;2024-01-07T10:48:20;92797.13;;;10.27;92.56
62978;BME280;49073;42.352;23.808;2024-01-07T10:51:21;92799.09;;;10.23;92.11
62978;BME280;49073;42.352;23.808;2024-01-07T10:54:24;92794.03;;;10.32;91.06
62978;BME280;49073;42.352;23.808;2024-01-07T10:57:47;92785.97;;;10.43;91.21
62978;BME280;49073;42.352;23.808;2024-01-07T11:00:49;92784.03;;;10.44;90.57
62978;BME280;49073;42.352;23.808;2024-01-07T11:04:20;92770.34;;;10.45;89.48
62978;BME280;49073;42.352;23.808;2024-01-07T11:07:35;92765.13;;;10.31;91.60
62978;BME280;49073;42.352;23.808;2024-01-07T11:10:45;92758.03;;;10.21;92.08
62978;BME280;49073;42.352;23.808;2024-01-07T11:13:49;92765.00;;;10.11;90.89
62978;BME280;49073;42.352;23.808;2024-01-07T11:16:49;92768.06;;;10.09;90.75
62978;BME280;49073;42.352;23.808;2024-01-07T11:19:50;92765.81;;;10.08;90.89
62978;BME280;49073;42.352;23.808;2024-01-07T11:22:51;92767.34;;;10.05;91.11
62978;BME280;49073;42.352;23.808;2024-01-07T11:25:52;92762.03;;;10.01;91.89
62978;BME280;49073;42.352;23.808;2024-01-07T11:28:54;92761.31;;;9.97;92.80
62978;BME280;49073;42.352;23.808;2024-01-07T11:31:58;92757.31;;;10.16;92.15
62978;BME280;49073;42.352;23.808;2024-01-07T11:34:59;92754.63;;;10.20;91.19
62978;BME280;49073;42.352;23.808;2024-01-07T11:37:59;92755.69;;;10.26;92.46
62978;BME280;49073;42.352;23.808;2024-01-07T11:41:00;92744.72;;;10.21;91.56
62978;BME280;49073;42.352;23.808;2024-01-07T11:44:03;92743.00;;;10.07;92.87
62978;BME280;49073;42.352;23.808;2024-01-07T11:47:04;92745.59;;;10.10;94.73
62978;BME280;49073;42.352;23.808;2024-01-07T11:50:05;92753.28;;;10.04;94.65
62978;BME280;49073;42.352;23.808;2024-01-07T11:53:07;92747.53;;;10.10;94.51
62978;BME280;49073;42.352;23.808;2024-01-07T11:56:08;92742.22;;;10.06;94.12
62978;BME280;49073;42.352;23.808;2024-01-07T11:59:09;92741.56;;;10.33;93.61
62978;BME280;49073;42.352;23.808;2024-01-07T12:02:09;92740.69;;;10.43;91.31
62978;BME280;49073;42.352;23.808;2024-01-07T12:05:11;92742.84;;;10.52;90.93
62978;BME280;49073;42.352;23.808;2024-01-07T12:08:14;92743.63;;;10.53;88.99
62978;BME280;49073;42.352;23.808;2024-01-07T12:11:15;92738.41;;;10.42;88.81
62978;BME280;49073;42.352;23.808;2024-01-07T12:14:17;92736.13;;;10.44;89.34
62978;BME280;49073;42.352;23.808;2024-01-07T12:17:18;92730.78;;;10.44;89.55
62978;BME280;49073;42.352;23.808;2024-01-07T12:20:18;92737.72;;;10.69;86.40
62978;BME280;49073;42.352;23.808;2024-01-07T12:23:19;92737.03;;;10.61;85.29
62978;BME280;49073;42.352;23.808;2024-01-07T12:26:19;92738.22;;;10.56;86.31
62978;BME280;49073;42.352;23.808;2024-01-07T12:29:20;92729.50;;;10.56;82.60
62978;BME280;49073;42.352;23.808;2024-01-07T12:32:21;92722.44;;;10.73;82.74
62978;BME280;49073;42.352;23.808;2024-01-07T12:35:25;92725.91;;;10.70;83.38
62978;BME280;49073;42.352;23.808;2024-01-07T12:38:26;92741.22;;;10.89;83.70
62978;BME280;49073;42.352;23.808;2024-01-07T12:41:27;92733.88;;;10.97;80.78
62978;BME280;49073;42.352;23.808;2024-01-07T12:44:29;92731.75;;;11.12;83.54
62978;BME280;49073;42.352;23.808;2024-01-07T12:47:30;92740.00;;;11.22;83.31
62978;BME280;49073;42.352;23.808;2024-01-07T12:50:30;92739.81;;;11.09;82.85
62978;BME280;49073;42.352;23.808;2024-01-07T12:53:31;92744.38;;;11.08;83.65
62978;BME280;49073;42.352;23.808;2024-01-07T12:56:32;92748.16;;;11.11;81.68
62978;BME280;49073;42.352;23.808;2024-01-07T12:59:33;92748.63;;;11.05;82.91
62978;BME280;49073;42.352;23.808;2024-01-07T13:02:34;92748.09;;;11.14;83.52
62978;BME280;49073;42.352;23.808;2024-01-07T13:05:34;92757.19;;;11.17;82.88
62978;BME280;49073;42.352;23.808;2024-01-07T13:08:35;92753.78;;;11.16;81.90
62978;BME280;49073;42.352;23.808;2024-01-07T13:11:35;92761.63;;;11.00;82.00
62978;BME280;49073;42.352;23.808;2024-01-07T13:14:37;92767.84;;;10.93;83.32
62978;BME280;49073;42.352;23.808;2024-01-07T13:17:38;92756.50;;;10.85;82.41
62978;BME280;49073;42.352;23.808;2024-01-07T13:20:38;92757.06;;;11.00;81.90
62978;BME280;49073;42.352;23.808;2024-01-07T13:23:41;92765.47;;;10.99;82.49
62978;BME280;49073;42.352;23.808;2024-01-07T13:26:44;92766.22;;;10.99;82.15
62978;BME280;49073;42.352;23.808;2024-01-07T13:29:44;92767.03;;;10.96;82.25
62978;BME280;49073;42.352;23.808;2024-01-07T13:32:47;92774.81;;;10.83;82.49
62978;BME280;49073;42.352;23.808;2024-01-07T13:35:49;92769.25;;;10.70;80.36
62978;BME280;49073;42.352;23.808;2024-01-07T13:38:50;92770.84;;;10.68;80.50
62978;BME280;49073;42.352;23.808;2024-01-07T13:41:51;92773.19;;;10.62;80.93
62978;BME280;49073;42.352;23.808;2024-01-07T13:44:53;92770.53;;;10.58;81.27
62978;BME280;49073;42.352;23.808;2024-01-07T13:47:55;92774.97;;;10.41;81.79
62978;BME280;49073;42.352;23.808;2024-01-07T13:50:55;92779.50;;;10.41;82.17
62978;BME280;49073;42.352;23.808;2024-01-07T13:53:58;92775.88;;;10.24;83.15
62978;BME280;49073;42.352;23.808;2024-01-07T13:56:58;92771.69;;;10.23;83.53
62978;BME280;49073;42.352;23.808;2024-01-07T13:59:59;92770.63;;;10.16;83.97
62978;BME280;49073;42.352;23.808;2024-01-07T14:03:00;92776.00;;;10.13;84.09
62978;BME280;49073;42.352;23.808;2024-01-07T14:06:01;92770.31;;;10.11;84.79
62978;BME280;49073;42.352;23.808;2024-01-07T14:09:03;92777.59;;;10.07;84.79
62978;BME280;49073;42.352;23.808;2024-01-07T14:12:04;92781.78;;;10.04;86.29
62978;BME280;49073;42.352;23.808;2024-01-07T14:15:05;92786.31;;;10.07;85.71
62978;BME280;49073;42.352;23.808;2024-01-07T14:18:06;92779.03;;;10.15;84.51
62978;BME280;49073;42.352;23.808;2024-01-07T14:21:07;92786.66;;;10.13;84.44
62978;BME280;49073;42.352;23.808;2024-01-07T14:24:07;92781.06;;;10.03;85.31
62978;BME280;49073;42.352;23.808;2024-01-07T14:27:08;92785.53;;;10.10;84.52
62978;BME280;49073;42.352;23.808;2024-01-07T14:30:08;92783.72;;;10.03;84.83
62978;BME280;49073;42.352;23.808;2024-01-07T14:33:09;92779.94;;;9.97;85.40
62978;BME280;49073;42.352;23.808;2024-01-07T14:36:10;92777.00;;;9.88;85.51
62978;BME280;49073;42.352;23.808;2024-01-07T14:39:17;92788.78;;;9.87;85.95
62978;BME280;49073;42.352;23.808;2024-01-07T14:42:17;92789.63;;;9.80;86.26
62978;BME280;49073;42.352;23.808;2024-01-07T14:45:19;92794.97;;;9.77;86.16
62978;BME280;49073;42.352;23.808;2024-01-07T14:48:19;92792.38;;;9.69;86.25
62978;BME280;49073;42.352;23.808;2024-01-07T14:51:20;92790.97;;;9.57;86.88
62978;BME280;49073;42.352;23.808;2024-01-07T14:54:20;92791.47;;;9.41;87.75
62978;BME280;49073;42.352;23.808;2024-01-07T14:57:21;92799.06;;;9.39;88.02
62978;BME280;49073;42.352;23.808;2024-01-07T15:00:22;92801.06;;;9.28;88.45
62978;BME280;49073;42.352;23.808;2024-01-07T15:03:24;92800.88;;;8.97;89.42
62978;BME280;49073;42.352;23.808;2024-01-07T15:06:25;92808.16;;;8.85;90.13
62978;BME280;49073;42.352;23.808;2024-01-07T15:09:26;92800.25;;;8.75;90.70
62978;BME280;49073;42.352;23.808;2024-01-07T15:12:27;92795.72;;;8.71;90.80
62978;BME280;49073;42.352;23.808;2024-01-07T15:15:36;92809.44;;;8.52;91.11
62978;BME280;49073;42.352;23.808;2024-01-07T15:18:37;92809.06;;;8.46;91.47
62978;BME280;49073;42.352;23.808;2024-01-07T15:21:38;92809.53;;;8.26;91.39
62978;BME280;49073;42.352;23.808;2024-01-07T15:24:38;92808.81;;;8.00;91.50
62978;BME280;49073;42.352;23.808;2024-01-07T15:27:42;92806.19;;;7.93;92.23
62978;BME280;49073;42.352;23.808;2024-01-07T15:30:43;92811.88;;;7.88;92.82
62978;BME280;49073;42.352;23.808;2024-01-07T15:33:47;92814.91;;;7.79;93.93
62978;BME280;49073;42.352;23.808;2024-01-07T15:36:47;92823.28;;;7.78;95.72
62978;BME280;49073;42.352;23.808;2024-01-07T15:39:48;92816.41;;;7.88;94.85
62978;BME280;49073;42.352;23.808;2024-01-07T15:42:51;92824.78;;;7.75;92.87
62978;BME280;49073;42.352;23.808;2024-01-07T15:45:52;92824.03;;;7.53;90.87
62978;BME280;49073;42.352;23.808;2024-01-07T15:48:52;92836.53;;;7.34;90.54